OYYOR EKCH-EKOD
Flight info
| Callsign | OYYOR |
|---|---|
| Flight time | 0h 55m |
| Altitude | 6000 |
| Route | KAS DCT BEL DCT TNO DCT ODN |
| Aircraft | C172/L-FGO/C |
Departure
| Time | 2026-04-24 08:52 |
|---|---|
| Airport | Copenhagen Kastrup Airport (EKCH) |
Arrival
| Time | 2026-04-24 09:47 |
|---|---|
| Airport | Odense Hans Christian Andersen Airport (EKOD) |
| Time | Latitude | Longitude | Altitude | Speed | Heading |
|---|---|---|---|---|---|
| 2026-04-24 08:09 | 55.61276 | 12.65707 | 16 ft | 0 kts | 71° |
| 2026-04-24 08:41 | 55.61278 | 12.65718 | 16 ft | 1 kts | 66° |
| 2026-04-24 08:41 | 55.61284 | 12.65738 | 16 ft | 2 kts | 59° |
| 2026-04-24 08:42 | 55.61300 | 12.65769 | 15 ft | 4 kts | 28° |
| 2026-04-24 08:42 | 55.61332 | 12.65781 | 15 ft | 4 kts | 17° |
| 2026-04-24 08:42 | 55.61357 | 12.65825 | 15 ft | 5 kts | 70° |
| 2026-04-24 08:42 | 55.61366 | 12.65902 | 14 ft | 7 kts | 86° |
| 2026-04-24 08:43 | 55.61369 | 12.65996 | 13 ft | 8 kts | 89° |
| 2026-04-24 08:43 | 55.61356 | 12.66094 | 13 ft | 8 kts | 137° |
| 2026-04-24 08:43 | 55.61310 | 12.66160 | 13 ft | 8 kts | 139° |
| 2026-04-24 08:43 | 55.61261 | 12.66215 | 13 ft | 8 kts | 174° |
| 2026-04-24 08:44 | 55.61202 | 12.66223 | 13 ft | 8 kts | 173° |
| 2026-04-24 08:44 | 55.61147 | 12.66234 | 13 ft | 8 kts | 173° |
| 2026-04-24 08:44 | 55.61091 | 12.66246 | 13 ft | 8 kts | 173° |
| 2026-04-24 08:44 | 55.61028 | 12.66257 | 13 ft | 9 kts | 174° |
| 2026-04-24 08:45 | 55.60986 | 12.66185 | 13 ft | 10 kts | 279° |
| 2026-04-24 08:45 | 55.60992 | 12.66060 | 14 ft | 10 kts | 274° |
| 2026-04-24 08:45 | 55.60997 | 12.65935 | 15 ft | 9 kts | 272° |
| 2026-04-24 08:45 | 55.60998 | 12.65817 | 16 ft | 9 kts | 271° |
| 2026-04-24 08:46 | 55.61001 | 12.65703 | 18 ft | 8 kts | 272° |
| 2026-04-24 08:46 | 55.61004 | 12.65599 | 19 ft | 8 kts | 280° |
| 2026-04-24 08:46 | 55.61004 | 12.65494 | 20 ft | 8 kts | 272° |
| 2026-04-24 08:46 | 55.61007 | 12.65387 | 20 ft | 9 kts | 273° |
| 2026-04-24 08:47 | 55.61010 | 12.65261 | 21 ft | 11 kts | 272° |
| 2026-04-24 08:47 | 55.61013 | 12.65099 | 21 ft | 14 kts | 270° |
| 2026-04-24 08:47 | 55.61018 | 12.64916 | 21 ft | 14 kts | 268° |
| 2026-04-24 08:47 | 55.61037 | 12.64795 | 21 ft | 5 kts | 329° |
| 2026-04-24 08:48 | 55.61052 | 12.64783 | 20 ft | 0 kts | 345° |
| 2026-04-24 08:49 | 55.61053 | 12.64783 | 20 ft | 0 kts | 342° |
| 2026-04-24 08:50 | 55.61062 | 12.64779 | 20 ft | 4 kts | 347° |
| 2026-04-24 08:50 | 55.61109 | 12.64749 | 20 ft | 10 kts | 355° |
| 2026-04-24 08:50 | 55.61197 | 12.64732 | 19 ft | 13 kts | 354° |
| 2026-04-24 08:50 | 55.61292 | 12.64819 | 19 ft | 18 kts | 40° |
| 2026-04-24 08:51 | 55.61500 | 12.65147 | 18 ft | 63 kts | 41° |
| 2026-04-24 08:51 | 55.61874 | 12.65703 | 137 ft | 71 kts | 29° |
| 2026-04-24 08:51 | 55.62301 | 12.66162 | 290 ft | 72 kts | 22° |
| 2026-04-24 08:51 | 55.62751 | 12.66577 | 442 ft | 75 kts | 16° |
| 2026-04-24 08:52 | 55.63220 | 12.66782 | 657 ft | 69 kts | 344° |
| 2026-04-24 08:52 | 55.63441 | 12.66060 | 763 ft | 82 kts | 275° |
| 2026-04-24 08:52 | 55.63443 | 12.65091 | 1000 ft | 75 kts | 265° |
| 2026-04-24 08:52 | 55.63311 | 12.64124 | 1124 ft | 83 kts | 265° |
| 2026-04-24 08:53 | 55.63219 | 12.63151 | 1313 ft | 84 kts | 258° |
| 2026-04-24 08:53 | 55.63023 | 12.62122 | 1412 ft | 92 kts | 257° |
| 2026-04-24 08:53 | 55.62773 | 12.60966 | 1445 ft | 104 kts | 251° |
| 2026-04-24 08:53 | 55.62510 | 12.59705 | 1437 ft | 111 kts | 262° |
| 2026-04-24 08:54 | 55.62334 | 12.58352 | 1441 ft | 115 kts | 262° |
| 2026-04-24 08:54 | 55.62149 | 12.57038 | 1533 ft | 112 kts | 261° |
| 2026-04-24 08:54 | 55.61934 | 12.55631 | 1454 ft | 120 kts | 260° |
| 2026-04-24 08:54 | 55.61718 | 12.54212 | 1444 ft | 120 kts | 260° |
| 2026-04-24 08:55 | 55.61500 | 12.52792 | 1441 ft | 119 kts | 261° |
| 2026-04-24 08:55 | 55.61278 | 12.51376 | 1439 ft | 118 kts | 260° |
| 2026-04-24 08:55 | 55.61058 | 12.49965 | 1439 ft | 118 kts | 261° |
| 2026-04-24 08:55 | 55.60833 | 12.48558 | 1442 ft | 118 kts | 260° |
| 2026-04-24 08:56 | 55.60612 | 12.47163 | 1441 ft | 118 kts | 260° |
| 2026-04-24 08:56 | 55.60506 | 12.45748 | 1443 ft | 115 kts | 276° |
| 2026-04-24 08:56 | 55.60534 | 12.44332 | 1443 ft | 114 kts | 278° |
| 2026-04-24 08:56 | 55.60577 | 12.42924 | 1439 ft | 114 kts | 278° |
| 2026-04-24 08:57 | 55.60620 | 12.41530 | 1442 ft | 114 kts | 278° |
| 2026-04-24 08:57 | 55.60663 | 12.40129 | 1440 ft | 114 kts | 278° |
| 2026-04-24 08:57 | 55.60704 | 12.38728 | 1444 ft | 114 kts | 278° |
| 2026-04-24 08:57 | 55.60745 | 12.37305 | 1448 ft | 114 kts | 278° |
| 2026-04-24 08:58 | 55.60806 | 12.35919 | 1445 ft | 114 kts | 283° |
| 2026-04-24 08:58 | 55.60925 | 12.34541 | 1446 ft | 113 kts | 283° |
| 2026-04-24 08:58 | 55.61045 | 12.33167 | 1446 ft | 113 kts | 283° |
| 2026-04-24 08:58 | 55.61164 | 12.31782 | 1447 ft | 113 kts | 283° |
| 2026-04-24 08:59 | 55.61310 | 12.30429 | 1439 ft | 111 kts | 295° |
| 2026-04-24 08:59 | 55.61637 | 12.29272 | 1557 ft | 102 kts | 302° |
| 2026-04-24 08:59 | 55.61962 | 12.28199 | 1679 ft | 97 kts | 302° |
| 2026-04-24 08:59 | 55.62279 | 12.27146 | 1801 ft | 95 kts | 302° |
| 2026-04-24 09:00 | 55.62580 | 12.26126 | 1921 ft | 93 kts | 301° |
| 2026-04-24 09:00 | 55.62872 | 12.25125 | 2043 ft | 92 kts | 301° |
| 2026-04-24 09:00 | 55.63159 | 12.24114 | 2164 ft | 91 kts | 301° |
| 2026-04-24 09:00 | 55.63439 | 12.23106 | 2289 ft | 90 kts | 301° |
| 2026-04-24 09:01 | 55.63709 | 12.22115 | 2411 ft | 90 kts | 302° |
| 2026-04-24 09:01 | 55.63977 | 12.21120 | 2535 ft | 89 kts | 302° |
| 2026-04-24 09:01 | 55.64243 | 12.20124 | 2660 ft | 89 kts | 302° |
| 2026-04-24 09:01 | 55.64501 | 12.19129 | 2781 ft | 89 kts | 301° |
| 2026-04-24 09:02 | 55.64759 | 12.18132 | 2904 ft | 88 kts | 302° |
| 2026-04-24 09:02 | 55.65015 | 12.17146 | 3028 ft | 88 kts | 301° |
| 2026-04-24 09:02 | 55.65267 | 12.16170 | 3151 ft | 88 kts | 301° |
| 2026-04-24 09:02 | 55.65524 | 12.15178 | 3277 ft | 87 kts | 302° |
| 2026-04-24 09:03 | 55.65772 | 12.14214 | 3398 ft | 86 kts | 303° |
| 2026-04-24 09:03 | 55.66146 | 12.13425 | 3513 ft | 82 kts | 326° |
| 2026-04-24 09:03 | 55.66620 | 12.12884 | 3636 ft | 80 kts | 330° |
| 2026-04-24 09:03 | 55.67094 | 12.12396 | 3757 ft | 79 kts | 331° |
| 2026-04-24 09:04 | 55.67541 | 12.11820 | 3883 ft | 81 kts | 309° |
| 2026-04-24 09:04 | 55.67703 | 12.10837 | 4018 ft | 86 kts | 285° |
| 2026-04-24 09:04 | 55.67749 | 12.09775 | 4161 ft | 87 kts | 283° |
| 2026-04-24 09:04 | 55.67781 | 12.08699 | 4292 ft | 87 kts | 283° |
| 2026-04-24 09:05 | 55.67798 | 12.07630 | 4417 ft | 88 kts | 281° |
| 2026-04-24 09:05 | 55.67792 | 12.06542 | 4537 ft | 87 kts | 279° |
| 2026-04-24 09:05 | 55.67786 | 12.05466 | 4666 ft | 87 kts | 280° |
| 2026-04-24 09:05 | 55.67786 | 12.04397 | 4792 ft | 86 kts | 282° |
| 2026-04-24 09:06 | 55.67804 | 12.03339 | 4919 ft | 86 kts | 283° |
| 2026-04-24 09:06 | 55.67819 | 12.02292 | 5044 ft | 85 kts | 283° |
| 2026-04-24 09:06 | 55.67834 | 12.01233 | 5167 ft | 85 kts | 283° |
| 2026-04-24 09:06 | 55.67870 | 12.00215 | 5282 ft | 82 kts | 290° |
| 2026-04-24 09:07 | 55.67955 | 11.99214 | 5394 ft | 81 kts | 290° |
| 2026-04-24 09:07 | 55.68047 | 11.98226 | 5521 ft | 81 kts | 291° |
| 2026-04-24 09:07 | 55.68226 | 11.96271 | 5757 ft | 80 kts | 291° |
| 2026-04-24 09:08 | 55.68316 | 11.95288 | 5881 ft | 80 kts | 290° |
| 2026-04-24 09:08 | 55.68404 | 11.94315 | 6009 ft | 80 kts | 291° |
| 2026-04-24 09:08 | 55.68489 | 11.93351 | 6144 ft | 79 kts | 290° |
| 2026-04-24 09:08 | 55.68593 | 11.92313 | 6139 ft | 91 kts | 291° |
| 2026-04-24 09:09 | 55.68721 | 11.91161 | 6130 ft | 98 kts | 291° |
| 2026-04-24 09:09 | 55.68858 | 11.89963 | 6126 ft | 101 kts | 291° |
| 2026-04-24 09:09 | 55.69011 | 11.88736 | 6122 ft | 101 kts | 295° |
| 2026-04-24 09:09 | 55.69210 | 11.87542 | 6125 ft | 101 kts | 296° |
| 2026-04-24 09:10 | 55.69419 | 11.86339 | 6126 ft | 102 kts | 296° |
| 2026-04-24 09:10 | 55.69570 | 11.85092 | 6123 ft | 105 kts | 287° |
| 2026-04-24 09:10 | 55.69662 | 11.83808 | 6120 ft | 104 kts | 291° |
| 2026-04-24 09:10 | 55.69917 | 11.82640 | 6126 ft | 100 kts | 303° |
| 2026-04-24 09:11 | 55.70221 | 11.81547 | 6127 ft | 100 kts | 304° |
| 2026-04-24 09:11 | 55.70537 | 11.80439 | 6124 ft | 100 kts | 304° |
| 2026-04-24 09:11 | 55.70860 | 11.79332 | 6123 ft | 100 kts | 304° |
| 2026-04-24 09:11 | 55.71151 | 11.78206 | 6124 ft | 102 kts | 297° |
| 2026-04-24 09:12 | 55.71372 | 11.76993 | 6125 ft | 103 kts | 295° |
| 2026-04-24 09:12 | 55.71578 | 11.75791 | 6123 ft | 102 kts | 295° |
| 2026-04-24 09:12 | 55.71779 | 11.74580 | 6124 ft | 103 kts | 295° |
| 2026-04-24 09:12 | 55.71976 | 11.73402 | 6114 ft | 92 kts | 296° |
| 2026-04-24 09:13 | 55.72133 | 11.72380 | 6099 ft | 82 kts | 295° |
| 2026-04-24 09:13 | 55.72273 | 11.71424 | 6058 ft | 78 kts | 295° |
| 2026-04-24 09:13 | 55.72402 | 11.70515 | 6003 ft | 76 kts | 295° |
| 2026-04-24 09:13 | 55.72528 | 11.69616 | 5976 ft | 71 kts | 295° |
| 2026-04-24 09:14 | 55.72633 | 11.68783 | 5975 ft | 65 kts | 294° |
| 2026-04-24 09:14 | 55.72720 | 11.68032 | 5975 ft | 59 kts | 294° |
| 2026-04-24 09:14 | 55.72791 | 11.67345 | 5975 ft | 54 kts | 294° |
| 2026-04-24 09:14 | 55.72820 | 11.66671 | 5941 ft | 59 kts | 278° |
| 2026-04-24 09:15 | 55.72791 | 11.65895 | 5877 ft | 59 kts | 289° |
| 2026-04-24 09:15 | 55.72842 | 11.65201 | 5863 ft | 55 kts | 293° |
| 2026-04-24 09:15 | 55.72891 | 11.64549 | 5829 ft | 56 kts | 289° |
| 2026-04-24 09:15 | 55.72946 | 11.63855 | 5796 ft | 54 kts | 294° |
| 2026-04-24 09:16 | 55.72953 | 11.63178 | 5792 ft | 62 kts | 263° |
| 2026-04-24 09:16 | 55.72939 | 11.62369 | 5709 ft | 65 kts | 293° |
| 2026-04-24 09:16 | 55.73046 | 11.61546 | 5696 ft | 70 kts | 294° |
| 2026-04-24 09:16 | 55.73170 | 11.60705 | 5692 ft | 72 kts | 295° |
| 2026-04-24 09:17 | 55.73299 | 11.59833 | 5691 ft | 73 kts | 295° |
| 2026-04-24 09:17 | 55.73425 | 11.58958 | 5689 ft | 74 kts | 294° |
| 2026-04-24 09:17 | 55.73554 | 11.58060 | 5689 ft | 75 kts | 295° |
| 2026-04-24 09:17 | 55.73678 | 11.57160 | 5689 ft | 75 kts | 295° |
| 2026-04-24 09:18 | 55.73804 | 11.56245 | 5689 ft | 76 kts | 294° |
| 2026-04-24 09:18 | 55.73933 | 11.55339 | 5690 ft | 76 kts | 294° |
| 2026-04-24 09:18 | 55.74065 | 11.54435 | 5689 ft | 76 kts | 294° |
| 2026-04-24 09:18 | 55.74204 | 11.53515 | 5688 ft | 76 kts | 294° |
| 2026-04-24 09:19 | 55.74344 | 11.52614 | 5689 ft | 76 kts | 294° |
| 2026-04-24 09:19 | 55.74486 | 11.51696 | 5687 ft | 77 kts | 294° |
| 2026-04-24 09:19 | 55.74630 | 11.50783 | 5688 ft | 77 kts | 294° |
| 2026-04-24 09:19 | 55.74776 | 11.49872 | 5689 ft | 76 kts | 295° |
| 2026-04-24 09:20 | 55.74922 | 11.48966 | 5688 ft | 76 kts | 294° |
| 2026-04-24 09:20 | 55.75068 | 11.48056 | 5688 ft | 77 kts | 294° |
| 2026-04-24 09:20 | 55.75212 | 11.47134 | 5690 ft | 77 kts | 294° |
| 2026-04-24 09:20 | 55.75352 | 11.46221 | 5690 ft | 77 kts | 294° |
| 2026-04-24 09:21 | 55.75491 | 11.45305 | 5688 ft | 77 kts | 294° |
| 2026-04-24 09:21 | 55.75632 | 11.44386 | 5688 ft | 77 kts | 294° |
| 2026-04-24 09:21 | 55.75776 | 11.43475 | 5689 ft | 77 kts | 294° |
| 2026-04-24 09:21 | 55.75924 | 11.42554 | 5689 ft | 77 kts | 295° |
| 2026-04-24 09:22 | 55.76074 | 11.41640 | 5689 ft | 77 kts | 294° |
| 2026-04-24 09:22 | 55.76104 | 11.40657 | 5691 ft | 82 kts | 276° |
| 2026-04-24 09:22 | 55.76054 | 11.39645 | 5690 ft | 83 kts | 274° |
| 2026-04-24 09:22 | 55.75949 | 11.38627 | 5690 ft | 85 kts | 265° |
| 2026-04-24 09:23 | 55.75783 | 11.37609 | 5689 ft | 86 kts | 262° |
| 2026-04-24 09:23 | 55.75481 | 11.36648 | 5691 ft | 90 kts | 249° |
| 2026-04-24 09:23 | 55.75128 | 11.35715 | 5691 ft | 91 kts | 247° |
| 2026-04-24 09:23 | 55.74793 | 11.34773 | 5689 ft | 90 kts | 248° |
| 2026-04-24 09:24 | 55.74504 | 11.33799 | 5693 ft | 88 kts | 254° |
| 2026-04-24 09:24 | 55.74242 | 11.32808 | 5695 ft | 88 kts | 256° |
| 2026-04-24 09:24 | 55.73983 | 11.31824 | 5699 ft | 88 kts | 255° |
| 2026-04-24 09:24 | 55.73761 | 11.30825 | 5701 ft | 86 kts | 261° |
| 2026-04-24 09:25 | 55.73581 | 11.29806 | 5699 ft | 87 kts | 262° |
| 2026-04-24 09:25 | 55.73405 | 11.28778 | 5697 ft | 87 kts | 262° |
| 2026-04-24 09:25 | 55.73225 | 11.27739 | 5694 ft | 88 kts | 261° |
| 2026-04-24 09:25 | 55.73050 | 11.26708 | 5692 ft | 88 kts | 262° |
| 2026-04-24 09:26 | 55.72871 | 11.25660 | 5691 ft | 88 kts | 262° |
| 2026-04-24 09:26 | 55.72657 | 11.24630 | 5692 ft | 90 kts | 254° |
| 2026-04-24 09:26 | 55.72352 | 11.23639 | 5692 ft | 91 kts | 250° |
| 2026-04-24 09:26 | 55.72029 | 11.22663 | 5691 ft | 92 kts | 249° |
| 2026-04-24 09:27 | 55.71709 | 11.21702 | 5694 ft | 91 kts | 249° |
| 2026-04-24 09:27 | 55.71401 | 11.20718 | 5697 ft | 90 kts | 251° |
| 2026-04-24 09:27 | 55.71102 | 11.19741 | 5700 ft | 90 kts | 251° |
| 2026-04-24 09:27 | 55.70800 | 11.18764 | 5702 ft | 90 kts | 250° |
| 2026-04-24 09:28 | 55.70502 | 11.17789 | 5703 ft | 90 kts | 251° |
| 2026-04-24 09:28 | 55.70207 | 11.16812 | 5704 ft | 90 kts | 250° |
| 2026-04-24 09:28 | 55.69923 | 11.15816 | 5704 ft | 89 kts | 256° |
| 2026-04-24 09:28 | 55.69704 | 11.14793 | 5706 ft | 88 kts | 259° |
| 2026-04-24 09:29 | 55.69519 | 11.13767 | 5707 ft | 88 kts | 261° |
| 2026-04-24 09:29 | 55.69339 | 11.12738 | 5707 ft | 88 kts | 261° |
| 2026-04-24 09:29 | 55.69156 | 11.11700 | 5707 ft | 88 kts | 261° |
| 2026-04-24 09:29 | 55.68977 | 11.10670 | 5707 ft | 88 kts | 261° |
| 2026-04-24 09:30 | 55.68798 | 11.09631 | 5704 ft | 88 kts | 261° |
| 2026-04-24 09:30 | 55.68616 | 11.08580 | 5700 ft | 88 kts | 261° |
| 2026-04-24 09:30 | 55.68435 | 11.07546 | 5696 ft | 89 kts | 261° |
| 2026-04-24 09:30 | 55.68230 | 11.06514 | 5696 ft | 89 kts | 258° |
| 2026-04-24 09:31 | 55.68016 | 11.05484 | 5698 ft | 88 kts | 258° |
| 2026-04-24 09:31 | 55.67805 | 11.04472 | 5701 ft | 88 kts | 257° |
| 2026-04-24 09:31 | 55.67594 | 11.03455 | 5705 ft | 87 kts | 258° |
| 2026-04-24 09:31 | 55.67379 | 11.02449 | 5707 ft | 87 kts | 255° |
| 2026-04-24 09:32 | 55.67134 | 11.01457 | 5708 ft | 88 kts | 253° |
| 2026-04-24 09:32 | 55.66882 | 11.00470 | 5707 ft | 88 kts | 253° |
| 2026-04-24 09:32 | 55.66627 | 10.99479 | 5707 ft | 88 kts | 253° |
| 2026-04-24 09:32 | 55.66372 | 10.98480 | 5708 ft | 89 kts | 253° |
| 2026-04-24 09:33 | 55.66116 | 10.97483 | 5708 ft | 89 kts | 253° |
| 2026-04-24 09:33 | 55.65857 | 10.96477 | 5706 ft | 89 kts | 254° |
| 2026-04-24 09:33 | 55.65596 | 10.95477 | 5704 ft | 89 kts | 253° |
| 2026-04-24 09:33 | 55.65338 | 10.94478 | 5707 ft | 89 kts | 253° |
| 2026-04-24 09:34 | 55.65079 | 10.93486 | 5708 ft | 89 kts | 253° |
| 2026-04-24 09:34 | 55.64825 | 10.92499 | 5708 ft | 89 kts | 254° |
| 2026-04-24 09:34 | 55.64566 | 10.91502 | 5706 ft | 89 kts | 253° |
| 2026-04-24 09:34 | 55.64306 | 10.90501 | 5708 ft | 89 kts | 253° |
| 2026-04-24 09:35 | 55.64048 | 10.89506 | 5707 ft | 89 kts | 253° |
| 2026-04-24 09:35 | 55.63790 | 10.88518 | 5705 ft | 88 kts | 253° |
| 2026-04-24 09:35 | 55.63526 | 10.87534 | 5707 ft | 88 kts | 253° |
| 2026-04-24 09:35 | 55.63264 | 10.86554 | 5708 ft | 89 kts | 253° |
| 2026-04-24 09:36 | 55.62997 | 10.85553 | 5704 ft | 89 kts | 253° |
| 2026-04-24 09:36 | 55.62732 | 10.84568 | 5708 ft | 89 kts | 253° |
| 2026-04-24 09:36 | 55.62474 | 10.83589 | 5705 ft | 89 kts | 253° |
| 2026-04-24 09:36 | 55.62210 | 10.82596 | 5704 ft | 89 kts | 253° |
| 2026-04-24 09:37 | 55.61943 | 10.81600 | 5705 ft | 89 kts | 253° |
| 2026-04-24 09:37 | 55.61679 | 10.80621 | 5705 ft | 89 kts | 253° |
| 2026-04-24 09:37 | 55.61413 | 10.79630 | 5708 ft | 89 kts | 252° |
| 2026-04-24 09:37 | 55.61147 | 10.78630 | 5709 ft | 89 kts | 253° |
| 2026-04-24 09:38 | 55.60883 | 10.77640 | 5709 ft | 89 kts | 253° |
| 2026-04-24 09:38 | 55.60617 | 10.76652 | 5695 ft | 91 kts | 253° |
| 2026-04-24 09:38 | 55.60330 | 10.75567 | 5579 ft | 101 kts | 253° |
| 2026-04-24 09:38 | 55.60031 | 10.74390 | 5460 ft | 107 kts | 253° |
| 2026-04-24 09:39 | 55.59727 | 10.73177 | 5337 ft | 110 kts | 253° |
| 2026-04-24 09:39 | 55.59423 | 10.71934 | 5212 ft | 111 kts | 253° |
| 2026-04-24 09:39 | 55.59114 | 10.70658 | 5084 ft | 112 kts | 254° |
| 2026-04-24 09:39 | 55.58807 | 10.69385 | 4954 ft | 113 kts | 253° |
| 2026-04-24 09:40 | 55.58501 | 10.68111 | 4821 ft | 113 kts | 253° |
| 2026-04-24 09:40 | 55.58199 | 10.66823 | 4689 ft | 113 kts | 253° |
| 2026-04-24 09:40 | 55.57899 | 10.65543 | 4557 ft | 113 kts | 253° |
| 2026-04-24 09:40 | 55.57606 | 10.64263 | 4436 ft | 113 kts | 253° |
| 2026-04-24 09:41 | 55.57317 | 10.62976 | 4311 ft | 113 kts | 253° |
| 2026-04-24 09:41 | 55.57028 | 10.61686 | 4184 ft | 113 kts | 253° |
| 2026-04-24 09:41 | 55.56743 | 10.60393 | 4053 ft | 113 kts | 253° |
| 2026-04-24 09:41 | 55.56464 | 10.59104 | 3919 ft | 113 kts | 253° |
| 2026-04-24 09:42 | 55.56182 | 10.57813 | 3787 ft | 112 kts | 253° |
| 2026-04-24 09:42 | 55.55902 | 10.56528 | 3655 ft | 112 kts | 253° |
| 2026-04-24 09:42 | 55.55618 | 10.55247 | 3522 ft | 112 kts | 249° |
| 2026-04-24 09:42 | 55.55216 | 10.54054 | 3393 ft | 113 kts | 242° |
| 2026-04-24 09:43 | 55.54787 | 10.52872 | 3265 ft | 113 kts | 241° |
| 2026-04-24 09:43 | 55.54369 | 10.51707 | 3137 ft | 114 kts | 241° |
| 2026-04-24 09:43 | 55.53940 | 10.50508 | 3005 ft | 114 kts | 241° |
| 2026-04-24 09:43 | 55.53520 | 10.49327 | 2878 ft | 114 kts | 241° |
| 2026-04-24 09:44 | 55.53098 | 10.48149 | 2753 ft | 114 kts | 242° |
| 2026-04-24 09:44 | 55.52676 | 10.46964 | 2624 ft | 113 kts | 242° |
| 2026-04-24 09:44 | 55.52258 | 10.45798 | 2498 ft | 113 kts | 241° |
| 2026-04-24 09:44 | 55.51843 | 10.44626 | 2335 ft | 112 kts | 240° |
| 2026-04-24 09:45 | 55.51403 | 10.43484 | 2111 ft | 113 kts | 238° |
| 2026-04-24 09:45 | 55.50969 | 10.42355 | 1925 ft | 109 kts | 240° |
| 2026-04-24 09:45 | 55.50546 | 10.41344 | 1828 ft | 95 kts | 237° |
| 2026-04-24 09:45 | 55.50174 | 10.40429 | 1664 ft | 92 kts | 241° |
| 2026-04-24 09:46 | 55.49810 | 10.39455 | 1386 ft | 97 kts | 243° |
| 2026-04-24 09:46 | 55.49477 | 10.38487 | 1182 ft | 89 kts | 243° |
| 2026-04-24 09:46 | 55.49148 | 10.37519 | 866 ft | 92 kts | 246° |
| 2026-04-24 09:46 | 55.48842 | 10.36570 | 630 ft | 86 kts | 245° |
| 2026-04-24 09:47 | 55.48555 | 10.35686 | 449 ft | 75 kts | 244° |
| 2026-04-24 09:47 | 55.48301 | 10.34963 | 267 ft | 67 kts | 245° |
| 2026-04-24 09:47 | 55.48072 | 10.34302 | 111 ft | 60 kts | 242° |
| 2026-04-24 09:47 | 55.47890 | 10.33760 | 51 ft | 42 kts | 243° |
| 2026-04-24 09:48 | 55.47770 | 10.33389 | 53 ft | 28 kts | 243° |
| 2026-04-24 09:48 | 55.47680 | 10.33141 | 55 ft | 16 kts | 186° |
| 2026-04-24 09:48 | 55.47628 | 10.33036 | 56 ft | 10 kts | 243° |
| 2026-04-24 09:48 | 55.47575 | 10.33006 | 56 ft | 8 kts | 152° |
| 2026-04-24 09:49 | 55.47526 | 10.33029 | 56 ft | 6 kts | 210° |
| 2026-04-24 09:49 | 55.47503 | 10.32973 | 56 ft | 4 kts | 240° |
| 2026-04-24 09:49 | 55.47486 | 10.32921 | 56 ft | 6 kts | 240° |
| 2026-04-24 09:49 | 55.47453 | 10.32820 | 57 ft | 12 kts | 241° |
| 2026-04-24 09:50 | 55.47387 | 10.32722 | 57 ft | 16 kts | 134° |
| 2026-04-24 09:50 | 55.47309 | 10.32855 | 57 ft | 15 kts | 139° |
| 2026-04-24 09:50 | 55.47236 | 10.32867 | 57 ft | 11 kts | 237° |
| 2026-04-24 09:50 | 55.47161 | 10.32782 | 57 ft | 15 kts | 211° |
| 2026-04-24 09:51 | 55.47095 | 10.32796 | 57 ft | 10 kts | 118° |
| 2026-04-24 09:51 | 55.47077 | 10.32796 | 57 ft | 0 kts | 273° |
| 2026-04-24 09:51 | 55.47080 | 10.32786 | 57 ft | 2 kts | 313° |
| 2026-04-24 09:51 | 55.47081 | 10.32785 | 57 ft | 0 kts | 316° |